sensor_id;sensor_type;location;lat;lon;timestamp;pressure;altitude;pressure_sealevel;temperature;humidity
12624;BME280;6377;42.836;23.998;2023-05-21T00:01:41;95616.75;;;12.75;100.00
12624;BME280;6377;42.836;23.998;2023-05-21T00:04:08;95563.25;;;12.44;100.00
12624;BME280;6377;42.836;23.998;2023-05-21T00:06:37;95640.38;;;12.98;100.00
12624;BME280;6377;42.836;23.998;2023-05-21T00:09:05;95623.75;;;12.82;100.00
12624;BME280;6377;42.836;23.998;2023-05-21T00:11:32;95610.00;;;12.72;100.00
12624;BME280;6377;42.836;23.998;2023-05-21T00:14:02;95626.72;;;13.01;100.00
12624;BME280;6377;42.836;23.998;2023-05-21T00:16:29;95606.78;;;12.83;100.00
12624;BME280;6377;42.836;23.998;2023-05-21T00:18:57;95567.78;;;12.50;100.00
12624;BME280;6377;42.836;23.998;2023-05-21T00:21:24;95487.53;;;11.92;100.00
12624;BME280;6377;42.836;23.998;2023-05-21T00:23:52;95623.75;;;12.82;100.00
12624;BME280;6377;42.836;23.998;2023-05-21T00:26:21;95585.75;;;12.26;100.00
12624;BME280;6377;42.836;23.998;2023-05-21T00:28:48;95616.59;;;12.55;100.00
12624;BME280;6377;42.836;23.998;2023-05-21T00:31:17;95619.19;;;12.49;100.00
12624;BME280;6377;42.836;23.998;2023-05-21T00:33:45;95563.41;;;12.14;100.00
12624;BME280;6377;42.836;23.998;2023-05-21T00:36:12;95565.59;;;12.32;100.00
12624;BME280;6377;42.836;23.998;2023-05-21T00:38:40;95598.19;;;12.54;100.00
12624;BME280;6377;42.836;23.998;2023-05-21T00:41:08;95616.69;;;12.68;100.00
12624;BME280;6377;42.836;23.998;2023-05-21T00:43:36;95607.16;;;12.74;100.00
12624;BME280;6377;42.836;23.998;2023-05-21T00:46:05;95606.84;;;12.62;100.00
12624;BME280;6377;42.836;23.998;2023-05-21T00:48:34;95625.28;;;12.70;100.00
12624;BME280;6377;42.836;23.998;2023-05-21T00:51:02;95579.38;;;12.49;100.00
12624;BME280;6377;42.836;23.998;2023-05-21T00:53:30;95569.47;;;12.36;100.00
12624;BME280;6377;42.836;23.998;2023-05-21T00:56:00;95615.06;;;12.67;100.00
12624;BME280;6377;42.836;23.998;2023-05-21T00:58:27;95589.06;;;12.56;100.00
12624;BME280;6377;42.836;23.998;2023-05-21T01:00:55;95625.38;;;12.83;100.00
12624;BME280;6377;42.836;23.998;2023-05-21T01:03:22;95617.25;;;12.85;100.00
12624;BME280;6377;42.836;23.998;2023-05-21T01:05:52;95615.63;;;12.90;100.00
12624;BME280;6377;42.836;23.998;2023-05-21T01:08:24;95584.72;;;12.76;100.00
12624;BME280;6377;42.836;23.998;2023-05-21T01:10:52;95610.13;;;12.92;100.00
12624;BME280;6377;42.836;23.998;2023-05-21T01:13:20;95604.63;;;12.66;100.00
12624;BME280;6377;42.836;23.998;2023-05-21T01:15:49;95585.75;;;12.54;100.00
12624;BME280;6377;42.836;23.998;2023-05-21T01:18:16;95615.53;;;12.77;100.00
12624;BME280;6377;42.836;23.998;2023-05-21T01:20:44;95619.72;;;12.65;100.00
12624;BME280;6377;42.836;23.998;2023-05-21T01:23:15;95609.47;;;12.56;100.00
12624;BME280;6377;42.836;23.998;2023-05-21T01:25:42;95616.22;;;12.58;100.00
12624;BME280;6377;42.836;23.998;2023-05-21T01:28:09;95517.75;;;11.98;100.00
12624;BME280;6377;42.836;23.998;2023-05-21T01:30:38;95624.72;;;12.54;100.00
12624;BME280;6377;42.836;23.998;2023-05-21T01:33:11;95616.78;;;12.54;100.00
12624;BME280;6377;42.836;23.998;2023-05-21T01:35:44;95619.19;;;12.49;100.00
12624;BME280;6377;42.836;23.998;2023-05-21T01:38:17;95599.25;;;12.31;100.00
12624;BME280;6377;42.836;23.998;2023-05-21T01:40:50;95625.09;;;12.51;100.00
12624;BME280;6377;42.836;23.998;2023-05-21T01:43:19;95615.78;;;12.55;100.00
12624;BME280;6377;42.836;23.998;2023-05-21T01:45:47;95576.22;;;12.32;100.00
12624;BME280;6377;42.836;23.998;2023-05-21T01:48:18;95586.66;;;12.40;100.00
12624;BME280;6377;42.836;23.998;2023-05-21T01:50:46;95612.13;;;12.56;100.00
12624;BME280;6377;42.836;23.998;2023-05-21T01:53:16;95612.94;;;12.56;100.00
12624;BME280;6377;42.836;23.998;2023-05-21T01:55:43;95608.81;;;12.54;100.00
12624;BME280;6377;42.836;23.998;2023-05-21T01:58:12;95615.97;;;12.53;100.00
12624;BME280;6377;42.836;23.998;2023-05-21T02:00:40;95609.41;;;12.49;100.00
12624;BME280;6377;42.836;23.998;2023-05-21T02:03:10;95607.94;;;12.47;100.00
12624;BME280;6377;42.836;23.998;2023-05-21T02:05:37;95609.19;;;12.51;100.00
12624;BME280;6377;42.836;23.998;2023-05-21T02:08:04;95509.63;;;11.78;100.00
12624;BME280;6377;42.836;23.998;2023-05-21T02:10:34;95606.97;;;12.54;100.00
12624;BME280;6377;42.836;23.998;2023-05-21T02:13:02;95599.69;;;12.56;100.00
12624;BME280;6377;42.836;23.998;2023-05-21T02:15:29;95580.16;;;12.43;100.00
12624;BME280;6377;42.836;23.998;2023-05-21T02:17:59;95562.44;;;12.22;100.00
12624;BME280;6377;42.836;23.998;2023-05-21T02:20:26;95594.69;;;12.47;100.00
12624;BME280;6377;42.836;23.998;2023-05-21T02:22:54;95577.22;;;12.31;100.00
12624;BME280;6377;42.836;23.998;2023-05-21T02:25:21;95594.69;;;12.47;100.00
12624;BME280;6377;42.836;23.998;2023-05-21T02:27:50;95592.19;;;12.39;100.00
12624;BME280;6377;42.836;23.998;2023-05-21T02:30:18;95584.34;;;12.30;100.00
12624;BME280;6377;42.836;23.998;2023-05-21T02:32:47;95593.03;;;12.46;100.00
12624;BME280;6377;42.836;23.998;2023-05-21T02:35:15;95595.91;;;12.44;100.00
12624;BME280;6377;42.836;23.998;2023-05-21T02:37:42;95533.88;;;11.96;100.00
12624;BME280;6377;42.836;23.998;2023-05-21T02:40:11;95577.34;;;12.44;100.00
12624;BME280;6377;42.836;23.998;2023-05-21T02:42:39;95564.78;;;12.31;100.00
12624;BME280;6377;42.836;23.998;2023-05-21T02:45:09;95562.34;;;12.36;100.00
12624;BME280;6377;42.836;23.998;2023-05-21T02:47:37;95569.84;;;12.26;100.00
12624;BME280;6377;42.836;23.998;2023-05-21T02:50:06;95437.91;;;11.37;100.00
12624;BME280;6377;42.836;23.998;2023-05-21T02:52:46;95409.81;;;11.21;100.00
12624;BME280;6377;42.836;23.998;2023-05-21T02:55:16;95424.72;;;11.22;100.00
12624;BME280;6377;42.836;23.998;2023-05-21T03:01:30;95493.59;;;11.65;100.00
12624;BME280;6377;42.836;23.998;2023-05-21T03:03:58;95426.38;;;11.23;100.00
12624;BME280;6377;42.836;23.998;2023-05-21T03:06:25;95438.53;;;11.39;100.00
12624;BME280;6377;42.836;23.998;2023-05-21T03:08:53;95542.50;;;12.26;100.00
12624;BME280;6377;42.836;23.998;2023-05-21T03:11:20;95438.22;;;11.49;100.00
12624;BME280;6377;42.836;23.998;2023-05-21T03:13:50;95544.56;;;12.30;100.00
12624;BME280;6377;42.836;23.998;2023-05-21T03:16:18;95588.69;;;12.59;100.00
12624;BME280;6377;42.836;23.998;2023-05-21T03:18:48;95533.34;;;12.28;100.00
12624;BME280;6377;42.836;23.998;2023-05-21T03:21:16;95581.91;;;12.57;100.00
12624;BME280;6377;42.836;23.998;2023-05-21T03:23:47;95454.88;;;11.64;100.00
12624;BME280;6377;42.836;23.998;2023-05-21T03:26:14;95384.63;;;11.25;100.00
12624;BME280;6377;42.836;23.998;2023-05-21T03:28:42;95583.03;;;12.48;100.00
12624;BME280;6377;42.836;23.998;2023-05-21T03:31:09;95576.66;;;12.35;100.00
12624;BME280;6377;42.836;23.998;2023-05-21T03:33:37;95584.25;;;12.45;100.00
12624;BME280;6377;42.836;23.998;2023-05-21T03:36:06;95573.03;;;12.43;100.00
12624;BME280;6377;42.836;23.998;2023-05-21T03:38:34;95537.34;;;12.18;100.00
12624;BME280;6377;42.836;23.998;2023-05-21T03:41:01;95625.84;;;12.38;100.00
12624;BME280;6377;42.836;23.998;2023-05-21T03:43:29;95439.34;;;11.40;100.00
12624;BME280;6377;42.836;23.998;2023-05-21T03:45:57;95589.56;;;12.45;100.00
12624;BME280;6377;42.836;23.998;2023-05-21T03:48:27;95498.97;;;11.71;100.00
12624;BME280;6377;42.836;23.998;2023-05-21T03:50:56;95418.59;;;11.22;100.00
12624;BME280;6377;42.836;23.998;2023-05-21T03:53:26;95558.09;;;12.14;100.00
12624;BME280;6377;42.836;23.998;2023-05-21T03:55:54;95437.06;;;11.37;100.00
12624;BME280;6377;42.836;23.998;2023-05-21T03:58:22;95399.38;;;11.35;100.00
12624;BME280;6377;42.836;23.998;2023-05-21T04:00:51;95421.78;;;11.53;100.00
12624;BME280;6377;42.836;23.998;2023-05-21T04:03:19;95415.00;;;11.51;100.00
12624;BME280;6377;42.836;23.998;2023-05-21T04:05:46;95505.16;;;12.00;100.00
12624;BME280;6377;42.836;23.998;2023-05-21T04:08:14;95529.69;;;12.29;100.00
12624;BME280;6377;42.836;23.998;2023-05-21T04:10:43;95512.59;;;12.11;100.00
12624;BME280;6377;42.836;23.998;2023-05-21T04:13:10;95534.22;;;12.35;100.00
12624;BME280;6377;42.836;23.998;2023-05-21T04:15:38;95580.47;;;12.82;100.00
12624;BME280;6377;42.836;23.998;2023-05-21T04:18:05;95422.06;;;11.86;100.00
12624;BME280;6377;42.836;23.998;2023-05-21T04:20:33;95546.63;;;12.63;100.00
12624;BME280;6377;42.836;23.998;2023-05-21T04:23:00;95546.19;;;12.53;100.00
12624;BME280;6377;42.836;23.998;2023-05-21T04:25:28;95436.13;;;11.65;100.00
12624;BME280;6377;42.836;23.998;2023-05-21T04:27:57;95601.19;;;12.72;100.00
12624;BME280;6377;42.836;23.998;2023-05-21T04:30:24;95594.06;;;12.72;100.00
12624;BME280;6377;42.836;23.998;2023-05-21T04:32:51;95587.38;;;12.76;100.00
12624;BME280;6377;42.836;23.998;2023-05-21T04:35:53;95584.75;;;12.83;100.00
12624;BME280;6377;42.836;23.998;2023-05-21T04:38:21;95573.84;;;12.71;100.00
12624;BME280;6377;42.836;23.998;2023-05-21T04:40:54;95589.03;;;12.84;100.00
12624;BME280;6377;42.836;23.998;2023-05-21T04:43:33;95579.63;;;12.81;100.00
12624;BME280;6377;42.836;23.998;2023-05-21T04:46:04;95435.06;;;11.81;100.00
12624;BME280;6377;42.836;23.998;2023-05-21T04:48:32;95434.63;;;11.77;100.00
12624;BME280;6377;42.836;23.998;2023-05-21T04:50:59;95434.31;;;11.87;100.00
12624;BME280;6377;42.836;23.998;2023-05-21T04:53:30;95516.81;;;12.33;100.00
12624;BME280;6377;42.836;23.998;2023-05-21T04:55:58;95549.38;;;12.76;100.00
12624;BME280;6377;42.836;23.998;2023-05-21T04:58:27;95588.94;;;12.99;100.00
12624;BME280;6377;42.836;23.998;2023-05-21T05:11:11;95604.00;;;12.91;100.00
12624;BME280;6377;42.836;23.998;2023-05-21T05:13:43;95517.13;;;12.45;100.00
12624;BME280;6377;42.836;23.998;2023-05-21T05:16:10;95583.31;;;12.53;100.00
12624;BME280;6377;42.836;23.998;2023-05-21T05:18:40;95536.50;;;12.45;100.00
12624;BME280;6377;42.836;23.998;2023-05-21T05:21:08;95598.88;;;12.90;100.00
12624;BME280;6377;42.836;23.998;2023-05-21T05:23:35;95598.88;;;12.90;100.00
12624;BME280;6377;42.836;23.998;2023-05-21T05:26:02;95469.13;;;12.05;100.00
12624;BME280;6377;42.836;23.998;2023-05-21T05:28:30;95524.94;;;12.53;100.00
12624;BME280;6377;42.836;23.998;2023-05-21T05:30:58;95459.91;;;12.01;100.00
12624;BME280;6377;42.836;23.998;2023-05-21T05:33:26;95473.25;;;12.14;100.00
12624;BME280;6377;42.836;23.998;2023-05-21T05:35:53;95589.75;;;12.99;100.00
12624;BME280;6377;42.836;23.998;2023-05-21T05:38:20;95591.88;;;13.10;100.00
12624;BME280;6377;42.836;23.998;2023-05-21T05:40:48;95462.22;;;12.11;100.00
12624;BME280;6377;42.836;23.998;2023-05-21T05:43:15;95539.22;;;12.79;100.00
12624;BME280;6377;42.836;23.998;2023-05-21T05:45:43;95526.50;;;12.75;100.00
12624;BME280;6377;42.836;23.998;2023-05-21T05:48:12;95615.25;;;13.21;100.00
12624;BME280;6377;42.836;23.998;2023-05-21T05:50:39;95453.16;;;12.26;100.00
12624;BME280;6377;42.836;23.998;2023-05-21T05:53:06;95599.16;;;13.29;100.00
12624;BME280;6377;42.836;23.998;2023-05-21T05:55:34;95495.66;;;12.67;100.00
12624;BME280;6377;42.836;23.998;2023-05-21T05:58:01;95521.44;;;13.14;100.00
12624;BME280;6377;42.836;23.998;2023-05-21T06:00:28;95582.50;;;13.55;100.00
12624;BME280;6377;42.836;23.998;2023-05-21T06:02:56;95589.69;;;13.61;100.00
12624;BME280;6377;42.836;23.998;2023-05-21T06:05:25;95578.84;;;13.63;100.00
12624;BME280;6377;42.836;23.998;2023-05-21T06:07:52;95500.44;;;13.19;100.00
12624;BME280;6377;42.836;23.998;2023-05-21T06:10:19;95590.13;;;13.71;100.00
12624;BME280;6377;42.836;23.998;2023-05-21T06:12:46;95527.94;;;13.53;100.00
12624;BME280;6377;42.836;23.998;2023-05-21T06:15:13;95450.31;;;13.03;100.00
12624;BME280;6377;42.836;23.998;2023-05-21T06:17:41;95567.25;;;13.83;100.00
12624;BME280;6377;42.836;23.998;2023-05-21T06:20:08;95576.28;;;13.95;100.00
12624;BME280;6377;42.836;23.998;2023-05-21T06:22:38;95482.69;;;13.33;100.00
12624;BME280;6377;42.836;23.998;2023-05-21T06:25:06;95579.81;;;14.02;100.00
12624;BME280;6377;42.836;23.998;2023-05-21T06:27:35;95575.50;;;14.08;100.00
12624;BME280;6377;42.836;23.998;2023-05-21T06:30:03;95603.94;;;14.08;100.00
12624;BME280;6377;42.836;23.998;2023-05-21T06:32:31;95562.00;;;14.10;100.00
12624;BME280;6377;42.836;23.998;2023-05-21T06:34:58;95574.28;;;14.24;100.00
12624;BME280;6377;42.836;23.998;2023-05-21T06:37:25;95511.66;;;13.82;100.00
12624;BME280;6377;42.836;23.998;2023-05-21T06:39:54;95577.63;;;14.45;100.00
12624;BME280;6377;42.836;23.998;2023-05-21T06:42:21;95580.09;;;14.47;100.00
12624;BME280;6377;42.836;23.998;2023-05-21T06:44:48;95577.00;;;14.56;100.00
12624;BME280;6377;42.836;23.998;2023-05-21T06:47:15;95563.91;;;14.55;100.00
12624;BME280;6377;42.836;23.998;2023-05-21T06:49:43;95535.06;;;14.32;100.00
12624;BME280;6377;42.836;23.998;2023-05-21T06:52:10;95582.34;;;14.70;100.00
12624;BME280;6377;42.836;23.998;2023-05-21T06:54:37;95589.91;;;14.79;100.00
12624;BME280;6377;42.836;23.998;2023-05-21T06:57:06;95580.88;;;14.93;100.00
12624;BME280;6377;42.836;23.998;2023-05-21T06:59:33;95539.91;;;14.81;100.00
12624;BME280;6377;42.836;23.998;2023-05-21T07:02:00;95524.78;;;14.82;100.00
12624;BME280;6377;42.836;23.998;2023-05-21T07:04:27;95532.53;;;14.96;100.00
12624;BME280;6377;42.836;23.998;2023-05-21T07:06:55;95604.97;;;15.38;100.00
12624;BME280;6377;42.836;23.998;2023-05-21T07:09:23;95497.91;;;14.90;100.00
12624;BME280;6377;42.836;23.998;2023-05-21T07:11:50;95534.31;;;15.09;100.00
12624;BME280;6377;42.836;23.998;2023-05-21T07:14:19;95497.72;;;14.85;100.00
12624;BME280;6377;42.836;23.998;2023-05-21T07:16:46;95566.09;;;15.10;100.00
12624;BME280;6377;42.836;23.998;2023-05-21T07:19:14;95514.53;;;14.79;100.00
12624;BME280;6377;42.836;23.998;2023-05-21T07:21:41;95538.44;;;14.98;100.00
12624;BME280;6377;42.836;23.998;2023-05-21T07:24:08;95507.75;;;14.89;100.00
12624;BME280;6377;42.836;23.998;2023-05-21T07:26:35;95488.69;;;14.86;100.00
12624;BME280;6377;42.836;23.998;2023-05-21T07:29:03;95578.84;;;15.66;100.00
12624;BME280;6377;42.836;23.998;2023-05-21T07:31:31;95478.22;;;14.97;100.00
12624;BME280;6377;42.836;23.998;2023-05-21T07:33:58;95507.00;;;15.27;100.00
12624;BME280;6377;42.836;23.998;2023-05-21T07:36:26;95557.94;;;15.63;100.00
12624;BME280;6377;42.836;23.998;2023-05-21T07:38:54;95556.41;;;15.80;100.00
12624;BME280;6377;42.836;23.998;2023-05-21T07:41:21;95538.38;;;15.82;100.00
12624;BME280;6377;42.836;23.998;2023-05-21T07:43:48;95537.72;;;15.87;100.00
12624;BME280;6377;42.836;23.998;2023-05-21T07:46:15;95549.63;;;16.15;100.00
12624;BME280;6377;42.836;23.998;2023-05-21T07:48:44;95526.88;;;16.13;100.00
12624;BME280;6377;42.836;23.998;2023-05-21T07:51:13;95539.25;;;16.32;100.00
12624;BME280;6377;42.836;23.998;2023-05-21T07:53:40;95562.91;;;16.53;100.00
12624;BME280;6377;42.836;23.998;2023-05-21T07:56:07;95528.47;;;16.45;100.00
12624;BME280;6377;42.836;23.998;2023-05-21T07:58:35;95539.78;;;16.72;100.00
12624;BME280;6377;42.836;23.998;2023-05-21T08:01:02;95539.19;;;16.88;100.00
12624;BME280;6377;42.836;23.998;2023-05-21T08:03:29;95532.72;;;17.02;100.00
12624;BME280;6377;42.836;23.998;2023-05-21T08:05:58;95555.38;;;17.54;100.00
12624;BME280;6377;42.836;23.998;2023-05-21T08:08:25;95535.31;;;17.45;100.00
12624;BME280;6377;42.836;23.998;2023-05-21T08:10:52;95552.06;;;17.88;100.00
12624;BME280;6377;42.836;23.998;2023-05-21T08:13:20;95494.88;;;17.71;100.00
12624;BME280;6377;42.836;23.998;2023-05-21T08:15:47;95542.09;;;18.25;100.00
12624;BME280;6377;42.836;23.998;2023-05-21T08:18:14;95522.03;;;18.16;100.00
12624;BME280;6377;42.836;23.998;2023-05-21T08:20:42;95436.19;;;17.88;100.00
12624;BME280;6377;42.836;23.998;2023-05-21T08:23:11;95531.47;;;18.72;100.00
12624;BME280;6377;42.836;23.998;2023-05-21T08:25:38;95489.44;;;18.72;100.00
12624;BME280;6377;42.836;23.998;2023-05-21T08:28:06;95541.16;;;19.19;100.00
12624;BME280;6377;42.836;23.998;2023-05-21T08:30:33;95500.81;;;19.02;100.00
12624;BME280;6377;42.836;23.998;2023-05-21T08:33:00;95508.63;;;19.16;100.00
12624;BME280;6377;42.836;23.998;2023-05-21T08:35:28;95473.09;;;18.97;100.00
12624;BME280;6377;42.836;23.998;2023-05-21T08:37:55;95470.31;;;18.92;100.00
12624;BME280;6377;42.836;23.998;2023-05-21T08:40:24;95532.28;;;19.19;100.00
12624;BME280;6377;42.836;23.998;2023-05-21T08:42:51;95495.25;;;18.92;100.00
12624;BME280;6377;42.836;23.998;2023-05-21T08:45:20;95517.81;;;19.08;100.00
12624;BME280;6377;42.836;23.998;2023-05-21T08:47:54;95502.81;;;18.84;100.00
12624;BME280;6377;42.836;23.998;2023-05-21T08:50:24;95530.63;;;19.18;100.00
12624;BME280;6377;42.836;23.998;2023-05-21T08:52:52;95479.06;;;18.99;100.00
12624;BME280;6377;42.836;23.998;2023-05-21T08:55:20;95472.25;;;19.08;100.00
12624;BME280;6377;42.836;23.998;2023-05-21T08:57:49;95525.06;;;19.42;100.00
12624;BME280;6377;42.836;23.998;2023-05-21T09:00:19;95481.00;;;19.15;100.00
12624;BME280;6377;42.836;23.998;2023-05-21T09:02:46;95505.94;;;19.16;100.00
12624;BME280;6377;42.836;23.998;2023-05-21T09:05:14;95489.06;;;19.03;100.00
12624;BME280;6377;42.836;23.998;2023-05-21T09:07:46;95472.16;;;19.03;100.00
12624;BME280;6377;42.836;23.998;2023-05-21T09:10:13;95518.72;;;19.37;100.00
12624;BME280;6377;42.836;23.998;2023-05-21T09:12:44;95501.72;;;19.31;100.00
12624;BME280;6377;42.836;23.998;2023-05-21T09:15:14;95477.59;;;19.08;100.00
12624;BME280;6377;42.836;23.998;2023-05-21T09:17:42;95517.78;;;19.54;100.00
12624;BME280;6377;42.836;23.998;2023-05-21T09:20:13;95510.31;;;19.56;100.00
12624;BME280;6377;42.836;23.998;2023-05-21T09:22:41;95508.44;;;19.57;100.00
12624;BME280;6377;42.836;23.998;2023-05-21T09:25:09;95514.63;;;19.58;100.00
12624;BME280;6377;42.836;23.998;2023-05-21T09:27:37;95500.09;;;19.30;100.00
12624;BME280;6377;42.836;23.998;2023-05-21T09:30:09;95505.31;;;19.48;100.00
12624;BME280;6377;42.836;23.998;2023-05-21T09:32:38;95505.50;;;19.58;100.00
12624;BME280;6377;42.836;23.998;2023-05-21T09:35:06;95507.69;;;19.73;100.00
12624;BME280;6377;42.836;23.998;2023-05-21T09:37:36;95462.72;;;19.64;100.00
12624;BME280;6377;42.836;23.998;2023-05-21T09:40:11;95506.31;;;19.99;100.00
12624;BME280;6377;42.836;23.998;2023-05-21T09:42:40;95499.25;;;20.09;100.00
12624;BME280;6377;42.836;23.998;2023-05-21T09:45:08;95479.47;;;20.16;100.00
12624;BME280;6377;42.836;23.998;2023-05-21T09:47:41;95503.06;;;20.58;100.00
12624;BME280;6377;42.836;23.998;2023-05-21T09:50:09;95466.03;;;20.60;100.00
12624;BME280;6377;42.836;23.998;2023-05-21T09:52:37;95493.81;;;21.04;100.00
12624;BME280;6377;42.836;23.998;2023-05-21T09:55:05;95493.97;;;21.31;100.00
12624;BME280;6377;42.836;23.998;2023-05-21T09:57:39;95465.16;;;21.32;100.00
12624;BME280;6377;42.836;23.998;2023-05-21T10:00:08;95483.19;;;21.53;100.00
12624;BME280;6377;42.836;23.998;2023-05-21T10:02:42;95398.69;;;20.89;100.00
12624;BME280;6377;42.836;23.998;2023-05-21T10:05:11;95481.72;;;21.23;100.00
12624;BME280;6377;42.836;23.998;2023-05-21T10:07:41;95482.28;;;21.26;100.00
12624;BME280;6377;42.836;23.998;2023-05-21T10:10:12;95482.16;;;21.37;100.00
12624;BME280;6377;42.836;23.998;2023-05-21T10:12:40;95479.19;;;21.34;100.00
12624;BME280;6377;42.836;23.998;2023-05-21T10:15:13;95479.25;;;21.39;100.00
12624;BME280;6377;42.836;23.998;2023-05-21T10:17:42;95475.53;;;21.66;100.00
12624;BME280;6377;42.836;23.998;2023-05-21T10:20:11;95473.59;;;21.84;100.00
12624;BME280;6377;42.836;23.998;2023-05-21T10:22:38;95428.94;;;21.39;100.00
12624;BME280;6377;42.836;23.998;2023-05-21T10:25:07;95466.66;;;21.66;100.00
12624;BME280;6377;42.836;23.998;2023-05-21T10:27:34;95471.63;;;21.31;100.00
12624;BME280;6377;42.836;23.998;2023-05-21T10:30:03;95472.63;;;21.25;100.00
12624;BME280;6377;42.836;23.998;2023-05-21T10:32:32;95464.38;;;21.31;100.00
12624;BME280;6377;42.836;23.998;2023-05-21T10:35:01;95469.53;;;21.38;100.00
12624;BME280;6377;42.836;23.998;2023-05-21T10:37:28;95471.63;;;21.31;100.00
12624;BME280;6377;42.836;23.998;2023-05-21T10:39:56;95473.31;;;21.37;99.04
12624;BME280;6377;42.836;23.998;2023-05-21T10:42:45;95343.03;;;20.46;93.31
12624;BME280;6377;42.836;23.998;2023-05-21T10:45:24;95453.63;;;21.14;94.45
12624;BME280;6377;42.836;23.998;2023-05-21T10:48:18;95460.28;;;21.29;97.87
12624;BME280;6377;42.836;23.998;2023-05-21T10:51:03;95462.91;;;21.23;97.99
12624;BME280;6377;42.836;23.998;2023-05-21T10:53:46;95454.34;;;21.27;92.91
12624;BME280;6377;42.836;23.998;2023-05-21T10:56:21;95451.09;;;21.25;95.16
12624;BME280;6377;42.836;23.998;2023-05-21T10:59:17;95464.44;;;21.19;88.81
12624;BME280;6377;42.836;23.998;2023-05-21T11:01:50;95436.28;;;21.05;90.01
12624;BME280;6377;42.836;23.998;2023-05-21T11:04:21;95445.09;;;21.01;95.07
12624;BME280;6377;42.836;23.998;2023-05-21T11:06:50;95464.47;;;21.03;92.43
12624;BME280;6377;42.836;23.998;2023-05-21T11:09:17;95445.44;;;21.04;94.47
12624;BME280;6377;42.836;23.998;2023-05-21T11:11:48;95437.75;;;21.13;96.30
12624;BME280;6377;42.836;23.998;2023-05-21T11:14:28;95444.25;;;22.09;86.71
12624;BME280;6377;42.836;23.998;2023-05-21T11:16:57;95421.31;;;22.70;79.48
12624;BME280;6377;42.836;23.998;2023-05-21T11:19:35;95434.38;;;22.93;82.38
12624;BME280;6377;42.836;23.998;2023-05-21T11:22:09;95434.16;;;23.00;77.39
12624;BME280;6377;42.836;23.998;2023-05-21T11:24:37;95431.31;;;23.21;70.22
12624;BME280;6377;42.836;23.998;2023-05-21T11:27:06;95429.34;;;23.59;70.68
12624;BME280;6377;42.836;23.998;2023-05-21T11:29:40;95419.97;;;23.91;68.20
12624;BME280;6377;42.836;23.998;2023-05-21T11:32:10;95397.84;;;24.40;63.01
12624;BME280;6377;42.836;23.998;2023-05-21T11:34:42;95400.56;;;24.85;51.81
12624;BME280;6377;42.836;23.998;2023-05-21T11:37:28;95402.19;;;24.31;48.93
12624;BME280;6377;42.836;23.998;2023-05-21T11:39:57;95392.97;;;23.96;54.44
12624;BME280;6377;42.836;23.998;2023-05-21T11:42:31;95394.34;;;24.34;47.08
12624;BME280;6377;42.836;23.998;2023-05-21T11:45:00;95404.03;;;24.76;44.75
12624;BME280;6377;42.836;23.998;2023-05-21T11:47:29;95389.56;;;25.31;41.60
12624;BME280;6377;42.836;23.998;2023-05-21T11:49:58;95386.25;;;25.54;44.96
12624;BME280;6377;42.836;23.998;2023-05-21T11:52:29;95345.63;;;24.80;49.52
12624;BME280;6377;42.836;23.998;2023-05-21T11:54:57;95403.25;;;24.90;52.63
12624;BME280;6377;42.836;23.998;2023-05-21T11:57:26;95400.53;;;25.00;57.91
12624;BME280;6377;42.836;23.998;2023-05-21T11:59:55;95380.78;;;24.90;59.08
12624;BME280;6377;42.836;23.998;2023-05-21T12:02:25;95362.78;;;25.29;54.42
12624;BME280;6377;42.836;23.998;2023-05-21T12:04:53;95380.25;;;25.57;51.86
12624;BME280;6377;42.836;23.998;2023-05-21T12:07:25;95372.00;;;25.23;53.36
12624;BME280;6377;42.836;23.998;2023-05-21T12:09:56;95377.81;;;24.91;54.01
12624;BME280;6377;42.836;23.998;2023-05-21T12:12:25;95379.97;;;24.79;54.32
12624;BME280;6377;42.836;23.998;2023-05-21T12:14:53;95347.59;;;24.24;54.06
12624;BME280;6377;42.836;23.998;2023-05-21T12:17:22;95379.22;;;24.13;52.21
12624;BME280;6377;42.836;23.998;2023-05-21T12:19:50;95376.47;;;24.08;53.79
12624;BME280;6377;42.836;23.998;2023-05-21T12:22:18;95368.34;;;23.78;55.07
12624;BME280;6377;42.836;23.998;2023-05-21T12:24:46;95380.69;;;23.38;55.42
12624;BME280;6377;42.836;23.998;2023-05-21T12:27:15;95384.66;;;23.26;57.67
12624;BME280;6377;42.836;23.998;2023-05-21T12:29:44;95377.47;;;23.47;55.14
12624;BME280;6377;42.836;23.998;2023-05-21T12:32:13;95356.63;;;23.37;54.56
12624;BME280;6377;42.836;23.998;2023-05-21T12:34:41;95381.72;;;23.37;54.89
12624;BME280;6377;42.836;23.998;2023-05-21T12:37:10;95375.34;;;23.54;54.13
12624;BME280;6377;42.836;23.998;2023-05-21T12:42:06;95360.59;;;24.22;50.90
12624;BME280;6377;42.836;23.998;2023-05-21T12:44:35;95363.16;;;25.02;49.65
12624;BME280;6377;42.836;23.998;2023-05-21T12:47:02;95357.13;;;25.80;45.83
12624;BME280;6377;42.836;23.998;2023-05-21T12:49:30;95373.84;;;25.92;43.92
12624;BME280;6377;42.836;23.998;2023-05-21T12:52:00;95374.72;;;25.82;44.94
12624;BME280;6377;42.836;23.998;2023-05-21T12:54:30;95359.78;;;25.85;43.48
12624;BME280;6377;42.836;23.998;2023-05-21T12:56:57;95364.75;;;26.11;41.34
12624;BME280;6377;42.836;23.998;2023-05-21T12:59:46;95347.53;;;25.97;40.31
12624;BME280;6377;42.836;23.998;2023-05-21T13:02:15;95332.75;;;25.75;35.46
12624;BME280;6377;42.836;23.998;2023-05-21T13:04:43;95348.03;;;25.99;37.99
12624;BME280;6377;42.836;23.998;2023-05-21T13:07:10;95340.47;;;26.35;38.38
12624;BME280;6377;42.836;23.998;2023-05-21T13:09:37;95349.22;;;26.22;36.64
12624;BME280;6377;42.836;23.998;2023-05-21T13:12:05;95346.31;;;26.47;37.48
12624;BME280;6377;42.836;23.998;2023-05-21T13:14:32;95365.91;;;26.39;35.23
12624;BME280;6377;42.836;23.998;2023-05-21T13:17:01;95286.63;;;26.18;36.18
12624;BME280;6377;42.836;23.998;2023-05-21T13:19:28;95336.31;;;26.95;35.34